createdAt,value
2022-08-04T00:01:46.583Z,23.53
2022-08-04T00:04:14.954Z,23.35
2022-08-04T00:06:56.010Z,23.23
2022-08-04T00:09:31.362Z,23.16
2022-08-04T00:12:01.943Z,23.12
2022-08-04T00:14:34.810Z,23.25
2022-08-04T00:17:06.063Z,23.27
2022-08-04T00:19:41.254Z,23.28
2022-08-04T00:22:11.438Z,22.98
2022-08-04T00:24:40.968Z,22.95
2022-08-04T00:27:09.552Z,22.93
2022-08-04T00:29:39.633Z,22.81
2022-08-04T00:32:09.363Z,22.83
2022-08-04T00:34:38.098Z,22.89
2022-08-04T00:37:07.530Z,22.89
2022-08-04T00:39:35.293Z,22.78
2022-08-04T00:42:58.685Z,22.91
2022-08-04T00:46:11.087Z,22.84
2022-08-04T00:48:57.529Z,22.85
2022-08-04T00:51:29.489Z,22.68
2022-08-04T00:54:07.441Z,22.70
2022-08-04T00:56:58.471Z,22.56
2022-08-04T00:59:45.516Z,22.48
2022-08-04T01:02:25.877Z,22.50
2022-08-04T01:05:03.932Z,22.33
2022-08-04T01:07:49.058Z,22.41
2022-08-04T01:10:25.196Z,22.40
2022-08-04T01:13:14.979Z,22.37
2022-08-04T01:16:00.209Z,22.40
2022-08-04T01:18:41.133Z,22.37
2022-08-04T01:21:32.312Z,22.36
2022-08-04T01:24:20.223Z,22.31
2022-08-04T01:26:58.324Z,22.21
2022-08-04T01:29:42.979Z,22.34
2022-08-04T01:32:25.667Z,22.12
2022-08-04T01:35:00.887Z,22.02
2022-08-04T01:37:45.172Z,22.00
2022-08-04T01:40:15.511Z,22.06
2022-08-04T01:42:45.548Z,22.05
2022-08-04T01:45:16.609Z,22.08
2022-08-04T01:47:50.532Z,22.02
2022-08-04T01:50:18.234Z,21.88
2022-08-04T01:52:50.673Z,21.99
2022-08-04T01:55:19.621Z,22.03
2022-08-04T01:57:48.767Z,21.84
2022-08-04T02:00:20.029Z,21.78
2022-08-04T02:02:48.043Z,21.97
2022-08-04T02:05:17.864Z,21.78
2022-08-04T02:07:56.726Z,21.81
2022-08-04T02:10:30.127Z,21.70
2022-08-04T02:13:18.373Z,21.73
2022-08-04T02:15:58.829Z,21.48
2022-08-04T02:18:31.577Z,21.61
2022-08-04T02:21:01.564Z,21.57
2022-08-04T02:23:32.507Z,21.55
2022-08-04T02:26:02.994Z,21.53
2022-08-04T02:28:36.496Z,21.54
2022-08-04T02:31:15.544Z,21.43
2022-08-04T02:33:45.501Z,21.38
2022-08-04T02:36:22.173Z,21.46
2022-08-04T02:38:57.886Z,21.48
2022-08-04T02:41:27.182Z,21.59
2022-08-04T02:43:58.470Z,21.61
2022-08-04T02:46:28.543Z,21.59
2022-08-04T02:48:57.451Z,21.66
2022-08-04T02:51:28.248Z,21.70
2022-08-04T02:53:57.490Z,21.72
2022-08-04T02:56:26.398Z,21.64
2022-08-04T02:58:59.293Z,21.61
2022-08-04T03:01:28.130Z,21.71
2022-08-04T03:04:27.777Z,21.68
2022-08-04T03:07:30.050Z,21.70
2022-08-04T03:10:28.697Z,21.74
2022-08-04T03:13:18.330Z,21.72
2022-08-04T03:15:59.243Z,21.67
2022-08-04T03:19:11.101Z,21.83
2022-08-04T03:22:14.635Z,22.11
2022-08-04T03:25:11.906Z,22.04
2022-08-04T03:28:14.455Z,22.18
2022-08-04T03:30:59.402Z,22.29
2022-08-04T03:33:46.293Z,22.39
2022-08-04T03:36:55.890Z,22.43
2022-08-04T03:39:56.164Z,22.43
2022-08-04T03:42:48.704Z,22.39
2022-08-04T03:45:56.002Z,22.49
2022-08-04T03:49:05.701Z,22.48
2022-08-04T03:51:56.469Z,22.47
2022-08-04T03:55:00.481Z,22.45
2022-08-04T03:57:49.946Z,22.51
2022-08-04T04:00:19.282Z,22.53
2022-08-04T04:03:28.885Z,22.57
2022-08-04T04:06:24.656Z,22.65
2022-08-04T04:09:21.101Z,22.89
2022-08-04T04:12:07.303Z,22.83
2022-08-04T04:14:47.363Z,22.91
2022-08-04T04:17:38.518Z,22.82
2022-08-04T04:20:24.364Z,22.92
2022-08-04T04:23:01.566Z,23.01
2022-08-04T04:25:40.808Z,23.02
2022-08-04T04:28:43.666Z,23.11
2022-08-04T04:31:38.971Z,23.14
2022-08-04T04:34:16.332Z,23.23
2022-08-04T04:36:57.367Z,23.30
2022-08-04T04:39:33.133Z,23.41
2022-08-04T04:42:12.868Z,23.51
2022-08-04T04:44:56.687Z,23.55
2022-08-04T04:47:43.354Z,23.63
2022-08-04T04:50:33.641Z,23.77
2022-08-04T04:53:13.623Z,24.00
2022-08-04T04:55:48.060Z,23.99
2022-08-04T04:58:18.932Z,24.22
2022-08-04T05:01:08.211Z,24.44
2022-08-04T05:03:50.043Z,24.53
2022-08-04T05:06:39.546Z,24.64
2022-08-04T05:09:32.966Z,24.73
2022-08-04T05:14:31.988Z,24.79
2022-08-04T05:15:09.425Z,24.86
2022-08-04T05:17:41.058Z,25.07
2022-08-04T05:20:14.341Z,25.08
2022-08-04T05:22:47.435Z,25.28
2022-08-04T05:25:21.911Z,25.32
2022-08-04T05:27:57.248Z,25.31
2022-08-04T05:30:26.754Z,25.43
2022-08-04T05:33:00.041Z,25.60
2022-08-04T05:35:50.501Z,25.66
2022-08-04T05:38:24.324Z,25.76
2022-08-04T05:40:53.359Z,25.89
2022-08-04T05:43:23.578Z,25.99
2022-08-04T05:45:52.503Z,25.99
2022-08-04T05:48:20.154Z,26.02
2022-08-04T05:50:50.085Z,26.12
2022-08-04T05:53:18.572Z,26.28
2022-08-04T05:55:48.964Z,26.40
2022-08-04T05:58:27.543Z,26.55
2022-08-04T06:00:56.656Z,26.35
2022-08-04T06:03:25.561Z,26.55
2022-08-04T06:05:55.649Z,26.72
2022-08-04T06:08:24.130Z,26.79
2022-08-04T06:10:52.375Z,26.80
2022-08-04T06:13:49.244Z,26.74
2022-08-04T06:16:17.818Z,26.85
2022-08-04T06:19:59.898Z,27.00
2022-08-04T06:21:49.797Z,26.95
2022-08-04T06:24:20.664Z,27.07
2022-08-04T06:26:50.364Z,27.27
2022-08-04T06:29:22.733Z,27.45
2022-08-04T06:32:27.364Z,27.50
2022-08-04T06:34:46.652Z,27.53
2022-08-04T06:37:23.971Z,27.50
2022-08-04T06:40:29.737Z,27.62
2022-08-04T06:42:56.798Z,27.77
2022-08-04T06:45:25.946Z,27.88
2022-08-04T06:47:55.509Z,28.13
2022-08-04T06:51:28.204Z,28.16
2022-08-04T06:53:13.001Z,27.99
2022-08-04T06:55:42.176Z,28.19
2022-08-04T06:58:11.145Z,28.36
2022-08-04T07:00:40.028Z,28.60
2022-08-04T07:03:08.408Z,28.80
2022-08-04T07:05:36.905Z,28.75
2022-08-04T07:08:05.510Z,29.01
2022-08-04T07:10:34.996Z,29.69
2022-08-04T07:13:03.382Z,30.19
2022-08-04T07:15:31.219Z,30.85
2022-08-04T07:18:01.255Z,31.76
2022-08-04T07:20:33.878Z,32.09
2022-08-04T07:23:04.505Z,32.14
2022-08-04T07:25:58.699Z,32.76
2022-08-04T07:28:22.615Z,33.23
2022-08-04T07:30:50.906Z,32.99
2022-08-04T07:33:19.116Z,32.84
2022-08-04T07:36:05.175Z,32.40
2022-08-04T07:38:37.959Z,32.52
2022-08-04T07:41:37.399Z,32.25
2022-08-04T07:44:07.736Z,32.01
2022-08-04T07:46:35.506Z,32.11
2022-08-04T07:49:03.535Z,31.56
2022-08-04T07:51:32.748Z,31.07
2022-08-04T07:54:03.315Z,30.99
2022-08-04T07:56:31.540Z,31.21
2022-08-04T07:58:59.322Z,31.43
2022-08-04T08:01:28.748Z,31.41
2022-08-04T08:03:58.021Z,31.42
2022-08-04T08:06:32.186Z,31.35
2022-08-04T08:09:02.065Z,31.35
2022-08-04T08:12:36.858Z,31.69
2022-08-04T08:14:30.191Z,31.90
2022-08-04T08:16:59.966Z,32.05
2022-08-04T08:19:27.447Z,32.06
2022-08-04T08:21:59.281Z,32.24
2022-08-04T08:24:27.791Z,32.41
2022-08-04T08:26:56.770Z,32.54
2022-08-04T08:29:24.528Z,32.86
2022-08-04T08:31:56.303Z,32.71
2022-08-04T08:34:29.165Z,33.07
2022-08-04T08:37:03.855Z,32.80
2022-08-04T08:39:38.379Z,32.66
2022-08-04T08:42:43.270Z,32.89
2022-08-04T08:45:33.467Z,33.13
2022-08-04T08:48:23.299Z,33.35
2022-08-04T08:51:07.868Z,33.61
2022-08-04T08:54:08.624Z,33.62
2022-08-04T08:56:45.934Z,33.53
2022-08-04T08:59:28.995Z,33.96
2022-08-04T09:02:12.591Z,33.91
2022-08-04T09:05:04.043Z,34.30
2022-08-04T09:07:46.798Z,34.76
2022-08-04T09:10:20.044Z,34.83
2022-08-04T09:12:52.432Z,34.84
2022-08-04T09:15:28.573Z,34.47
2022-08-04T09:18:00.458Z,34.41
2022-08-04T09:20:32.399Z,34.89
2022-08-04T09:23:14.395Z,35.00
2022-08-04T09:25:47.999Z,34.60
2022-08-04T09:28:43.664Z,34.50
2022-08-04T09:31:12.070Z,34.96
2022-08-04T09:33:48.811Z,35.48
2022-08-04T09:36:27.140Z,35.77
2022-08-04T09:39:09.511Z,35.67
2022-08-04T09:41:49.443Z,34.75
2022-08-04T09:44:48.824Z,34.95
2022-08-04T09:47:25.544Z,35.07
2022-08-04T09:50:17.909Z,35.17
2022-08-04T09:52:50.585Z,35.26
2022-08-04T09:55:35.516Z,35.15
2022-08-04T09:58:09.350Z,35.95
2022-08-04T10:00:44.830Z,35.74
2022-08-04T10:03:19.675Z,35.25
2022-08-04T10:06:00.973Z,35.78
2022-08-04T10:08:44.366Z,36.01
2022-08-04T10:11:22.314Z,36.19
2022-08-04T10:13:57.811Z,36.17
2022-08-04T10:16:41.207Z,36.05
2022-08-04T10:19:21.543Z,36.29
2022-08-04T10:22:28.241Z,36.15
2022-08-04T10:25:01.578Z,36.36
2022-08-04T10:27:35.000Z,36.39
2022-08-04T10:30:11.769Z,36.56
2022-08-04T10:32:46.471Z,36.86
2022-08-04T10:35:15.807Z,36.95
2022-08-04T10:37:59.095Z,36.95
2022-08-04T10:40:45.158Z,36.43
2022-08-04T10:43:27.901Z,37.07
2022-08-04T10:46:00.710Z,37.37
2022-08-04T10:48:37.541Z,37.47
2022-08-04T10:51:16.967Z,37.19
2022-08-04T10:53:46.382Z,37.01
2022-08-04T10:56:18.809Z,37.17
2022-08-04T10:58:52.863Z,36.97
2022-08-04T11:01:59.950Z,37.46
2022-08-04T11:04:27.857Z,37.18
2022-08-04T11:06:56.960Z,36.61
2022-08-04T11:09:24.553Z,36.52
2022-08-04T11:12:01.255Z,36.17
2022-08-04T11:14:38.868Z,36.03
2022-08-04T11:17:09.568Z,36.09
2022-08-04T11:19:49.961Z,36.36
2022-08-04T11:22:25.858Z,36.57
2022-08-04T11:24:56.919Z,36.70
2022-08-04T11:27:30.205Z,37.01
2022-08-04T11:30:04.286Z,36.64
2022-08-04T11:32:38.772Z,36.95
2022-08-04T11:35:12.262Z,36.96
2022-08-04T11:37:46.445Z,37.29
2022-08-04T11:40:21.506Z,37.19
2022-08-04T11:42:56.201Z,37.01
2022-08-04T11:45:31.943Z,36.93
2022-08-04T11:48:02.301Z,36.50
2022-08-04T11:50:35.196Z,36.88
2022-08-04T11:53:03.899Z,36.77
2022-08-04T11:56:07.684Z,36.46
2022-08-04T11:58:22.831Z,36.28
2022-08-04T12:01:01.740Z,36.19
2022-08-04T12:03:40.358Z,36.65
2022-08-04T12:06:16.302Z,36.60
2022-08-04T12:09:03.410Z,36.79
2022-08-04T12:11:51.333Z,36.59
2022-08-04T12:14:34.695Z,36.53
2022-08-04T12:17:05.784Z,36.71
2022-08-04T12:20:03.107Z,36.78
2022-08-04T12:22:31.585Z,36.78
2022-08-04T12:25:04.284Z,37.00
2022-08-04T12:27:35.893Z,36.54
2022-08-04T12:30:59.819Z,36.80
2022-08-04T12:33:03.562Z,37.00
2022-08-04T12:35:38.058Z,37.04
2022-08-04T12:38:29.926Z,37.10
2022-08-04T12:40:59.641Z,37.31
2022-08-04T12:43:31.392Z,37.17
2022-08-04T12:46:04.014Z,36.87
2022-08-04T12:48:34.413Z,36.94
2022-08-04T12:51:03.223Z,37.22
2022-08-04T12:53:35.467Z,37.46
2022-08-04T12:56:26.685Z,37.66
2022-08-04T12:59:01.840Z,37.39
2022-08-04T13:02:08.821Z,37.51
2022-08-04T13:04:21.631Z,37.73
2022-08-04T13:07:04.538Z,37.47
2022-08-04T13:09:34.999Z,37.75
2022-08-04T13:12:07.059Z,37.71
2022-08-04T13:14:38.568Z,37.69
2022-08-04T13:17:06.581Z,37.64
2022-08-04T13:19:41.149Z,37.80
2022-08-04T13:22:28.045Z,37.21
2022-08-04T13:25:18.439Z,37.00
2022-08-04T13:27:48.371Z,36.80
2022-08-04T13:30:23.251Z,36.78
2022-08-04T13:32:56.066Z,36.81
2022-08-04T13:35:56.059Z,36.87
2022-08-04T13:38:15.818Z,36.71
2022-08-04T13:40:44.970Z,36.77
2022-08-04T13:44:16.294Z,36.56
2022-08-04T13:46:28.199Z,36.58
2022-08-04T13:51:57.808Z,36.62
2022-08-04T13:54:30.553Z,36.77
2022-08-04T13:57:01.935Z,36.64
2022-08-04T13:59:37.547Z,36.52
2022-08-04T14:02:07.181Z,36.47
2022-08-04T14:04:41.413Z,36.71
2022-08-04T14:07:17.979Z,36.72
2022-08-04T14:10:03.188Z,36.63
2022-08-04T14:12:45.844Z,36.67
2022-08-04T14:15:54.711Z,36.61
2022-08-04T14:18:25.813Z,36.68
2022-08-04T14:21:08.336Z,36.31
2022-08-04T14:23:47.384Z,36.12
2022-08-04T14:26:17.477Z,36.29
2022-08-04T14:29:08.589Z,36.28
2022-08-04T14:31:32.992Z,36.42
2022-08-04T14:34:05.121Z,36.32
2022-08-04T14:36:49.650Z,36.34
2022-08-04T14:39:41.597Z,36.27
2022-08-04T14:42:41.708Z,36.34
2022-08-04T14:45:10.336Z,36.41
2022-08-04T14:47:52.557Z,36.56
2022-08-04T14:50:20.828Z,36.47
2022-08-04T14:52:48.305Z,36.36
2022-08-04T14:55:22.455Z,36.25
2022-08-04T14:58:35.898Z,36.06
2022-08-04T15:00:38.713Z,36.19
2022-08-04T15:03:08.952Z,36.43
2022-08-04T15:06:01.757Z,36.47
2022-08-04T15:08:31.546Z,36.36
2022-08-04T15:11:02.887Z,36.18
2022-08-04T15:13:32.071Z,36.25
2022-08-04T15:16:07.072Z,36.32
2022-08-04T15:18:37.109Z,36.27
2022-08-04T15:21:05.581Z,36.15
2022-08-04T15:23:39.422Z,36.02
2022-08-04T15:26:12.603Z,35.93
2022-08-04T15:28:42.670Z,36.08
2022-08-04T15:32:05.474Z,36.10
2022-08-04T15:33:59.251Z,36.08
2022-08-04T15:36:35.692Z,36.18
2022-08-04T15:39:09.830Z,36.23
2022-08-04T15:41:55.419Z,36.17
2022-08-04T15:44:49.749Z,36.13
2022-08-04T15:47:17.125Z,35.91
2022-08-04T15:49:45.383Z,35.71
2022-08-04T15:52:18.333Z,35.54
2022-08-04T15:54:52.700Z,35.35
2022-08-04T15:58:00.472Z,35.30
2022-08-04T16:00:28.243Z,35.22
2022-08-04T16:02:55.876Z,35.11
2022-08-04T16:05:40.290Z,34.97
2022-08-04T16:08:15.500Z,34.86
2022-08-04T16:10:45.294Z,34.95
2022-08-04T16:13:15.833Z,34.76
2022-08-04T16:15:46.789Z,34.53
2022-08-04T16:18:26.566Z,34.39
2022-08-04T16:20:56.717Z,34.31
2022-08-04T16:24:05.786Z,34.56
2022-08-04T16:26:54.312Z,34.46
2022-08-04T16:29:40.068Z,34.51
2022-08-04T16:32:10.330Z,34.53
2022-08-04T16:34:49.008Z,34.81
2022-08-04T16:37:19.357Z,34.85
2022-08-04T16:39:51.239Z,34.87
2022-08-04T16:42:31.443Z,34.90
2022-08-04T16:45:12.468Z,34.87
2022-08-04T16:48:03.630Z,34.77
2022-08-04T16:50:31.840Z,34.78
2022-08-04T16:52:59.490Z,34.67
2022-08-04T16:55:29.271Z,34.57
2022-08-04T16:57:59.118Z,34.50
2022-08-04T17:00:32.598Z,34.54
2022-08-04T17:03:03.365Z,34.40
2022-08-04T17:05:38.873Z,34.42
2022-08-04T17:08:29.260Z,34.30
2022-08-04T17:10:56.074Z,34.21
2022-08-04T17:14:03.927Z,34.22
2022-08-04T17:16:20.952Z,34.16
2022-08-04T17:18:50.730Z,34.04
2022-08-04T17:21:20.755Z,34.07
2022-08-04T17:24:16.447Z,34.14
2022-08-04T17:26:41.782Z,33.91
2022-08-04T17:29:13.407Z,33.82
2022-08-04T17:31:48.639Z,33.99
2022-08-04T17:34:21.245Z,34.02
2022-08-04T17:36:49.488Z,34.04
2022-08-04T17:39:20.152Z,33.80
2022-08-04T17:41:49.712Z,33.62
2022-08-04T17:44:17.683Z,33.71
2022-08-04T17:46:49.063Z,33.60
2022-08-04T17:49:23.209Z,33.72
2022-08-04T17:52:05.048Z,33.58
2022-08-04T17:54:39.185Z,33.60
2022-08-04T17:57:20.160Z,33.47
2022-08-04T17:59:58.054Z,33.31
2022-08-04T18:02:32.803Z,33.34
2022-08-04T18:05:07.435Z,33.20
2022-08-04T18:08:37.721Z,33.13
2022-08-04T18:10:43.271Z,33.05
2022-08-04T18:13:22.989Z,32.97
2022-08-04T18:15:51.748Z,32.96
2022-08-04T18:18:23.819Z,32.84
2022-08-04T18:20:51.502Z,32.64
2022-08-04T18:23:18.928Z,32.74
2022-08-04T18:25:58.703Z,32.46
2022-08-04T18:28:27.125Z,32.38
2022-08-04T18:30:58.091Z,32.23
2022-08-04T18:33:39.917Z,32.10
2022-08-04T18:36:32.795Z,31.98
2022-08-04T18:38:58.532Z,31.80
2022-08-04T18:41:26.795Z,31.83
2022-08-04T18:43:56.070Z,31.71
2022-08-04T18:46:26.904Z,31.70
2022-08-04T18:48:56.058Z,31.66
2022-08-04T18:51:30.589Z,31.54
2022-08-04T18:53:59.430Z,31.34
2022-08-04T18:56:29.729Z,31.28
2022-08-04T18:59:00.208Z,31.43
2022-08-04T19:01:30.291Z,31.22
2022-08-04T19:04:32.945Z,31.16
2022-08-04T19:07:25.103Z,31.02
2022-08-04T19:09:52.215Z,30.99
2022-08-04T19:12:27.339Z,30.78
2022-08-04T19:14:58.839Z,30.98
2022-08-04T19:17:53.340Z,30.96
2022-08-04T19:20:25.712Z,30.73
2022-08-04T19:24:10.994Z,30.79
2022-08-04T19:26:03.909Z,30.62
2022-08-04T19:28:34.235Z,30.63
2022-08-04T19:31:03.852Z,30.66
2022-08-04T19:33:58.929Z,30.64
2022-08-04T19:36:20.748Z,30.45
2022-08-04T19:38:56.825Z,30.30
2022-08-04T19:41:24.425Z,30.23
2022-08-04T19:43:54.522Z,30.09
2022-08-04T19:46:24.751Z,30.08
2022-08-04T19:48:59.334Z,29.95
2022-08-04T19:51:29.588Z,29.93
2022-08-04T19:54:03.795Z,29.86
2022-08-04T19:56:40.462Z,29.75
2022-08-04T19:59:09.244Z,29.74
2022-08-04T20:01:44.108Z,29.92
2022-08-04T20:04:12.716Z,29.90
2022-08-04T20:06:42.462Z,29.86
2022-08-04T20:09:24.785Z,29.92
2022-08-04T20:11:54.621Z,29.88
2022-08-04T20:14:31.195Z,29.78
2022-08-04T20:17:00.465Z,29.66
2022-08-04T20:19:27.886Z,29.54
2022-08-04T20:22:00.092Z,29.58
2022-08-04T20:24:36.842Z,29.37
2022-08-04T20:27:14.894Z,29.53
2022-08-04T20:29:48.587Z,29.44
2022-08-04T20:32:19.231Z,29.39
2022-08-04T20:34:47.657Z,29.45
2022-08-04T20:37:16.681Z,29.36
2022-08-04T20:39:44.345Z,29.35
2022-08-04T20:42:12.374Z,29.09
2022-08-04T20:44:42.250Z,29.06
2022-08-04T20:47:14.024Z,28.93
2022-08-04T20:49:42.684Z,28.82
2022-08-04T20:52:20.215Z,28.70
2022-08-04T20:54:49.367Z,28.76
2022-08-04T20:57:47.707Z,28.79
2022-08-04T21:00:13.209Z,28.86
2022-08-04T21:02:41.466Z,28.84
2022-08-04T21:05:11.715Z,28.73
2022-08-04T21:07:43.915Z,28.54
2022-08-04T21:10:17.620Z,28.41
2022-08-04T21:12:49.871Z,28.62
2022-08-04T21:15:24.771Z,28.33
2022-08-04T21:17:57.601Z,28.46
2022-08-04T21:20:33.202Z,28.24
2022-08-04T21:23:03.681Z,28.45
2022-08-04T21:25:42.696Z,28.41
2022-08-04T21:28:11.285Z,28.35
2022-08-04T21:30:54.126Z,28.27
2022-08-04T21:33:24.620Z,27.92
2022-08-04T21:36:12.495Z,27.63
2022-08-04T21:38:40.047Z,27.58
2022-08-04T21:41:10.730Z,27.47
2022-08-04T21:43:43.105Z,27.28
2022-08-04T21:46:11.672Z,27.18
2022-08-04T21:48:39.345Z,27.12
2022-08-04T21:51:58.972Z,26.89
2022-08-04T21:54:07.640Z,26.83
2022-08-04T21:56:38.060Z,26.92
2022-08-04T21:59:11.516Z,26.92
2022-08-04T22:01:50.380Z,26.97
2022-08-04T22:04:22.292Z,26.70
2022-08-04T22:06:51.959Z,26.45
2022-08-04T22:09:21.560Z,26.23
2022-08-04T22:11:52.220Z,26.15
2022-08-04T22:14:27.566Z,26.29
2022-08-04T22:16:57.702Z,25.70
2022-08-04T22:19:50.314Z,25.90
2022-08-04T22:25:12.324Z,25.57
2022-08-04T22:28:01.682Z,25.41
2022-08-04T22:30:33.083Z,25.54
2022-08-04T22:33:05.458Z,25.77
2022-08-04T22:35:43.787Z,25.67
2022-08-04T22:38:28.860Z,25.60
2022-08-04T22:41:06.983Z,25.75
2022-08-04T22:43:37.517Z,25.71
2022-08-04T22:46:07.622Z,25.61
2022-08-04T22:48:36.776Z,25.38
2022-08-04T22:51:05.862Z,25.46
2022-08-04T22:53:35.387Z,25.57
2022-08-04T22:56:09.960Z,25.76
2022-08-04T22:58:45.357Z,25.88
2022-08-04T23:01:18.574Z,25.89
2022-08-04T23:03:51.102Z,25.94
2022-08-04T23:06:25.199Z,25.92
2022-08-04T23:08:52.995Z,25.96
2022-08-04T23:11:21.208Z,25.99
2022-08-04T23:13:50.307Z,26.00
2022-08-04T23:16:19.016Z,26.12
2022-08-04T23:18:49.100Z,25.96
2022-08-04T23:21:17.593Z,26.00
2022-08-04T23:24:02.170Z,25.94
2022-08-04T23:26:30.560Z,26.03
2022-08-04T23:28:59.558Z,25.78
2022-08-04T23:31:41.276Z,25.94
2022-08-04T23:34:18.952Z,25.88
2022-08-04T23:36:47.510Z,25.81
2022-08-04T23:39:15.290Z,25.85
2022-08-04T23:41:55.359Z,25.81
2022-08-04T23:44:26.831Z,25.80
2022-08-04T23:46:59.175Z,25.74
2022-08-04T23:49:43.927Z,25.81
2022-08-04T23:52:23.320Z,25.83
2022-08-04T23:54:57.049Z,25.81
2022-08-04T23:57:31.448Z,25.66
